sensor_id;sensor_type;location;lat;lon;timestamp;temperature;humidity
1700;DHT22;847;48.058;7.810;2023-06-22T00:01:16;22.60;99.00
1700;DHT22;847;48.058;7.810;2023-06-22T00:03:42;22.40;99.00
1700;DHT22;847;48.058;7.810;2023-06-22T00:06:09;22.40;99.00
1700;DHT22;847;48.058;7.810;2023-06-22T00:08:36;22.40;99.00
1700;DHT22;847;48.058;7.810;2023-06-22T00:11:03;22.30;99.00
1700;DHT22;847;48.058;7.810;2023-06-22T00:13:31;22.20;99.00
1700;DHT22;847;48.058;7.810;2023-06-22T00:15:58;22.30;99.00
1700;DHT22;847;48.058;7.810;2023-06-22T00:18:24;22.20;99.00
1700;DHT22;847;48.058;7.810;2023-06-22T00:20:54;22.30;99.00
1700;DHT22;847;48.058;7.810;2023-06-22T00:23:23;22.30;99.00
1700;DHT22;847;48.058;7.810;2023-06-22T00:25:50;22.10;99.00
1700;DHT22;847;48.058;7.810;2023-06-22T00:28:17;22.00;99.00
1700;DHT22;847;48.058;7.810;2023-06-22T00:30:45;22.10;99.00
1700;DHT22;847;48.058;7.810;2023-06-22T00:33:13;22.00;99.00
1700;DHT22;847;48.058;7.810;2023-06-22T00:35:39;21.90;99.00
1700;DHT22;847;48.058;7.810;2023-06-22T00:38:07;21.70;99.00
1700;DHT22;847;48.058;7.810;2023-06-22T00:40:34;21.80;99.00
1700;DHT22;847;48.058;7.810;2023-06-22T00:43:01;21.80;99.00
1700;DHT22;847;48.058;7.810;2023-06-22T00:45:28;21.70;99.00
1700;DHT22;847;48.058;7.810;2023-06-22T00:47:56;21.60;99.00
1700;DHT22;847;48.058;7.810;2023-06-22T00:50:26;21.60;99.00
1700;DHT22;847;48.058;7.810;2023-06-22T00:52:54;21.60;99.00
1700;DHT22;847;48.058;7.810;2023-06-22T00:55:24;21.50;99.00
1700;DHT22;847;48.058;7.810;2023-06-22T00:57:51;21.50;99.00
1700;DHT22;847;48.058;7.810;2023-06-22T01:00:22;21.60;99.00
1700;DHT22;847;48.058;7.810;2023-06-22T01:02:50;21.70;99.00
1700;DHT22;847;48.058;7.810;2023-06-22T01:05:19;21.70;99.00
1700;DHT22;847;48.058;7.810;2023-06-22T01:07:55;21.80;99.00
1700;DHT22;847;48.058;7.810;2023-06-22T01:10:30;21.80;99.00
1700;DHT22;847;48.058;7.810;2023-06-22T01:13:02;21.70;99.00
1700;DHT22;847;48.058;7.810;2023-06-22T01:15:34;21.60;99.00
1700;DHT22;847;48.058;7.810;2023-06-22T01:18:04;21.60;99.00
1700;DHT22;847;48.058;7.810;2023-06-22T01:20:34;21.60;99.00
1700;DHT22;847;48.058;7.810;2023-06-22T01:23:09;21.70;99.00
1700;DHT22;847;48.058;7.810;2023-06-22T01:25:45;21.70;99.00
1700;DHT22;847;48.058;7.810;2023-06-22T01:30:53;21.70;99.00
1700;DHT22;847;48.058;7.810;2023-06-22T01:33:29;21.50;99.00
1700;DHT22;847;48.058;7.810;2023-06-22T01:35:57;21.50;99.00
1700;DHT22;847;48.058;7.810;2023-06-22T01:38:24;21.50;99.00
1700;DHT22;847;48.058;7.810;2023-06-22T01:40:52;21.60;99.00
1700;DHT22;847;48.058;7.810;2023-06-22T01:43:20;21.50;99.00
1700;DHT22;847;48.058;7.810;2023-06-22T01:45:48;21.30;99.00
1700;DHT22;847;48.058;7.810;2023-06-22T01:48:17;21.30;99.00
1700;DHT22;847;48.058;7.810;2023-06-22T01:50:44;21.40;99.00
1700;DHT22;847;48.058;7.810;2023-06-22T01:53:11;21.30;99.00
1700;DHT22;847;48.058;7.810;2023-06-22T01:55:38;21.30;99.00
1700;DHT22;847;48.058;7.810;2023-06-22T01:58:05;21.10;99.00
1700;DHT22;847;48.058;7.810;2023-06-22T02:00:33;21.00;99.00
1700;DHT22;847;48.058;7.810;2023-06-22T02:03:05;20.80;99.00
1700;DHT22;847;48.058;7.810;2023-06-22T02:05:36;20.90;99.00
1700;DHT22;847;48.058;7.810;2023-06-22T02:08:09;21.10;99.00
1700;DHT22;847;48.058;7.810;2023-06-22T02:10:38;20.90;99.00
1700;DHT22;847;48.058;7.810;2023-06-22T02:13:08;20.80;99.00
1700;DHT22;847;48.058;7.810;2023-06-22T02:15:36;20.80;99.00
1700;DHT22;847;48.058;7.810;2023-06-22T02:18:04;20.90;99.00
1700;DHT22;847;48.058;7.810;2023-06-22T02:20:30;21.10;99.00
1700;DHT22;847;48.058;7.810;2023-06-22T02:22:58;21.20;99.00
1700;DHT22;847;48.058;7.810;2023-06-22T02:25:25;21.20;99.00
1700;DHT22;847;48.058;7.810;2023-06-22T02:27:52;21.20;99.00
1700;DHT22;847;48.058;7.810;2023-06-22T02:30:19;21.10;99.00
1700;DHT22;847;48.058;7.810;2023-06-22T02:32:45;21.00;99.00
1700;DHT22;847;48.058;7.810;2023-06-22T02:35:12;21.00;99.00
1700;DHT22;847;48.058;7.810;2023-06-22T02:37:39;21.10;99.00
1700;DHT22;847;48.058;7.810;2023-06-22T02:40:09;21.20;99.00
1700;DHT22;847;48.058;7.810;2023-06-22T02:42:36;21.10;99.00
1700;DHT22;847;48.058;7.810;2023-06-22T02:45:03;21.10;99.00
1700;DHT22;847;48.058;7.810;2023-06-22T02:47:30;21.10;99.00
1700;DHT22;847;48.058;7.810;2023-06-22T02:49:57;21.10;99.00
1700;DHT22;847;48.058;7.810;2023-06-22T02:52:23;20.90;99.00
1700;DHT22;847;48.058;7.810;2023-06-22T02:54:50;20.90;99.00
1700;DHT22;847;48.058;7.810;2023-06-22T02:57:18;20.90;99.00
1700;DHT22;847;48.058;7.810;2023-06-22T02:59:45;20.90;99.00
1700;DHT22;847;48.058;7.810;2023-06-22T03:02:12;20.90;99.00
1700;DHT22;847;48.058;7.810;2023-06-22T03:04:39;20.80;99.00
1700;DHT22;847;48.058;7.810;2023-06-22T03:07:05;20.80;99.00
1700;DHT22;847;48.058;7.810;2023-06-22T03:09:32;20.80;99.00
1700;DHT22;847;48.058;7.810;2023-06-22T03:11:59;20.90;99.00
1700;DHT22;847;48.058;7.810;2023-06-22T03:14:28;20.90;99.00
1700;DHT22;847;48.058;7.810;2023-06-22T03:16:55;20.90;99.00
1700;DHT22;847;48.058;7.810;2023-06-22T03:19:28;20.90;99.00
1700;DHT22;847;48.058;7.810;2023-06-22T03:21:56;20.90;99.00
1700;DHT22;847;48.058;7.810;2023-06-22T03:24:23;20.90;99.00
1700;DHT22;847;48.058;7.810;2023-06-22T03:26:50;20.80;99.00
1700;DHT22;847;48.058;7.810;2023-06-22T03:29:17;20.70;99.00
1700;DHT22;847;48.058;7.810;2023-06-22T03:31:45;20.70;99.00
1700;DHT22;847;48.058;7.810;2023-06-22T03:34:11;20.60;99.00
1700;DHT22;847;48.058;7.810;2023-06-22T03:36:38;20.50;99.00
1700;DHT22;847;48.058;7.810;2023-06-22T03:39:05;20.50;99.00
1700;DHT22;847;48.058;7.810;2023-06-22T03:41:32;20.50;99.00
1700;DHT22;847;48.058;7.810;2023-06-22T03:43:58;20.50;99.00
1700;DHT22;847;48.058;7.810;2023-06-22T03:46:25;20.50;99.00
1700;DHT22;847;48.058;7.810;2023-06-22T03:48:53;20.60;99.00
1700;DHT22;847;48.058;7.810;2023-06-22T03:51:20;20.60;99.00
1700;DHT22;847;48.058;7.810;2023-06-22T03:53:47;20.70;99.00
1700;DHT22;847;48.058;7.810;2023-06-22T03:56:14;20.70;99.00
1700;DHT22;847;48.058;7.810;2023-06-22T03:58:45;20.70;99.00
1700;DHT22;847;48.058;7.810;2023-06-22T04:01:12;20.80;99.00
1700;DHT22;847;48.058;7.810;2023-06-22T04:03:39;20.80;99.00
1700;DHT22;847;48.058;7.810;2023-06-22T04:06:07;20.80;99.00
1700;DHT22;847;48.058;7.810;2023-06-22T04:08:34;20.70;99.00
1700;DHT22;847;48.058;7.810;2023-06-22T04:11:01;20.70;99.00
1700;DHT22;847;48.058;7.810;2023-06-22T04:13:27;20.70;99.00
1700;DHT22;847;48.058;7.810;2023-06-22T04:15:54;20.70;99.00
1700;DHT22;847;48.058;7.810;2023-06-22T04:18:21;20.70;99.00
1700;DHT22;847;48.058;7.810;2023-06-22T04:20:48;20.70;99.00
1700;DHT22;847;48.058;7.810;2023-06-22T04:23:16;20.70;99.00
1700;DHT22;847;48.058;7.810;2023-06-22T04:25:42;20.80;99.00
1700;DHT22;847;48.058;7.810;2023-06-22T04:28:09;20.80;99.00
1700;DHT22;847;48.058;7.810;2023-06-22T04:30:38;20.80;99.00
1700;DHT22;847;48.058;7.810;2023-06-22T04:33:12;20.80;99.00
1700;DHT22;847;48.058;7.810;2023-06-22T04:35:38;20.80;99.00
1700;DHT22;847;48.058;7.810;2023-06-22T04:38:07;20.90;99.00
1700;DHT22;847;48.058;7.810;2023-06-22T04:40:35;20.90;99.00
1700;DHT22;847;48.058;7.810;2023-06-22T04:43:02;20.90;99.00
1700;DHT22;847;48.058;7.810;2023-06-22T04:45:29;20.90;99.00
1700;DHT22;847;48.058;7.810;2023-06-22T04:47:56;20.90;99.00
1700;DHT22;847;48.058;7.810;2023-06-22T04:50:23;20.90;99.00
1700;DHT22;847;48.058;7.810;2023-06-22T04:52:51;20.90;99.00
1700;DHT22;847;48.058;7.810;2023-06-22T04:55:18;20.90;99.00
1700;DHT22;847;48.058;7.810;2023-06-22T04:57:46;20.90;99.00
1700;DHT22;847;48.058;7.810;2023-06-22T05:00:15;20.90;99.00
1700;DHT22;847;48.058;7.810;2023-06-22T05:02:43;21.00;99.00
1700;DHT22;847;48.058;7.810;2023-06-22T05:05:11;21.00;99.00
1700;DHT22;847;48.058;7.810;2023-06-22T05:07:41;21.00;99.00
1700;DHT22;847;48.058;7.810;2023-06-22T05:10:09;20.90;99.00
1700;DHT22;847;48.058;7.810;2023-06-22T05:12:36;21.00;99.00
1700;DHT22;847;48.058;7.810;2023-06-22T05:15:06;21.10;99.00
1700;DHT22;847;48.058;7.810;2023-06-22T05:17:33;21.10;99.00
1700;DHT22;847;48.058;7.810;2023-06-22T05:20:00;21.10;99.00
1700;DHT22;847;48.058;7.810;2023-06-22T05:22:27;21.20;99.00
1700;DHT22;847;48.058;7.810;2023-06-22T05:24:54;21.10;99.00
1700;DHT22;847;48.058;7.810;2023-06-22T05:27:21;21.20;99.00
1700;DHT22;847;48.058;7.810;2023-06-22T05:29:48;21.20;99.00
1700;DHT22;847;48.058;7.810;2023-06-22T05:32:16;21.20;99.00
1700;DHT22;847;48.058;7.810;2023-06-22T05:34:42;21.10;99.00
1700;DHT22;847;48.058;7.810;2023-06-22T05:37:09;21.10;99.00
1700;DHT22;847;48.058;7.810;2023-06-22T05:39:36;21.10;99.00
1700;DHT22;847;48.058;7.810;2023-06-22T05:42:05;21.10;99.00
1700;DHT22;847;48.058;7.810;2023-06-22T05:44:32;21.10;99.00
1700;DHT22;847;48.058;7.810;2023-06-22T05:46:59;21.20;99.00
1700;DHT22;847;48.058;7.810;2023-06-22T05:49:27;21.20;99.00
1700;DHT22;847;48.058;7.810;2023-06-22T05:51:58;21.20;99.00
1700;DHT22;847;48.058;7.810;2023-06-22T05:54:24;21.30;99.00
1700;DHT22;847;48.058;7.810;2023-06-22T05:56:51;21.10;99.00
1700;DHT22;847;48.058;7.810;2023-06-22T05:59:18;21.10;99.00
1700;DHT22;847;48.058;7.810;2023-06-22T06:01:45;21.10;99.00
1700;DHT22;847;48.058;7.810;2023-06-22T06:04:15;21.20;99.00
1700;DHT22;847;48.058;7.810;2023-06-22T06:06:43;21.20;99.00
1700;DHT22;847;48.058;7.810;2023-06-22T06:09:10;21.10;99.00
1700;DHT22;847;48.058;7.810;2023-06-22T06:11:37;21.10;99.00
1700;DHT22;847;48.058;7.810;2023-06-22T06:14:04;21.20;99.00
1700;DHT22;847;48.058;7.810;2023-06-22T06:16:31;21.20;99.00
1700;DHT22;847;48.058;7.810;2023-06-22T06:18:58;21.30;99.00
1700;DHT22;847;48.058;7.810;2023-06-22T06:21:24;21.40;99.00
1700;DHT22;847;48.058;7.810;2023-06-22T06:23:52;21.40;99.00
1700;DHT22;847;48.058;7.810;2023-06-22T06:26:19;21.50;99.00
1700;DHT22;847;48.058;7.810;2023-06-22T06:28:55;21.50;99.00
1700;DHT22;847;48.058;7.810;2023-06-22T06:31:22;21.50;99.00
1700;DHT22;847;48.058;7.810;2023-06-22T06:33:49;21.60;99.00
1700;DHT22;847;48.058;7.810;2023-06-22T06:36:15;21.70;99.00
1700;DHT22;847;48.058;7.810;2023-06-22T06:38:42;21.80;99.00
1700;DHT22;847;48.058;7.810;2023-06-22T06:41:10;21.80;99.00
1700;DHT22;847;48.058;7.810;2023-06-22T06:43:37;21.80;99.00
1700;DHT22;847;48.058;7.810;2023-06-22T06:46:04;21.90;99.00
1700;DHT22;847;48.058;7.810;2023-06-22T06:48:37;21.90;99.00
1700;DHT22;847;48.058;7.810;2023-06-22T06:51:05;21.90;99.00
1700;DHT22;847;48.058;7.810;2023-06-22T06:53:34;22.00;99.00
1700;DHT22;847;48.058;7.810;2023-06-22T06:56:01;22.00;99.00
1700;DHT22;847;48.058;7.810;2023-06-22T06:58:30;22.00;99.00
1700;DHT22;847;48.058;7.810;2023-06-22T07:00:57;22.10;99.00
1700;DHT22;847;48.058;7.810;2023-06-22T07:03:24;22.10;99.00
1700;DHT22;847;48.058;7.810;2023-06-22T07:05:51;22.10;99.00
1700;DHT22;847;48.058;7.810;2023-06-22T07:08:17;22.10;99.00
1700;DHT22;847;48.058;7.810;2023-06-22T07:10:44;22.10;99.00
1700;DHT22;847;48.058;7.810;2023-06-22T07:13:11;22.10;99.00
1700;DHT22;847;48.058;7.810;2023-06-22T07:15:39;22.20;99.00
1700;DHT22;847;48.058;7.810;2023-06-22T07:18:06;22.30;99.00
1700;DHT22;847;48.058;7.810;2023-06-22T07:20:32;22.40;99.00
1700;DHT22;847;48.058;7.810;2023-06-22T07:23:00;22.50;99.00
1700;DHT22;847;48.058;7.810;2023-06-22T07:25:26;22.50;99.00
1700;DHT22;847;48.058;7.810;2023-06-22T07:28:01;22.50;99.00
1700;DHT22;847;48.058;7.810;2023-06-22T07:30:28;22.60;99.00
1700;DHT22;847;48.058;7.810;2023-06-22T07:32:57;22.60;99.00
1700;DHT22;847;48.058;7.810;2023-06-22T07:35:24;22.60;99.00
1700;DHT22;847;48.058;7.810;2023-06-22T07:37:51;22.60;99.00
1700;DHT22;847;48.058;7.810;2023-06-22T07:40:17;22.60;99.00
1700;DHT22;847;48.058;7.810;2023-06-22T07:42:44;22.60;99.00
1700;DHT22;847;48.058;7.810;2023-06-22T07:45:13;22.70;99.00
1700;DHT22;847;48.058;7.810;2023-06-22T07:47:40;22.70;99.00
1700;DHT22;847;48.058;7.810;2023-06-22T07:50:09;22.70;99.00
1700;DHT22;847;48.058;7.810;2023-06-22T07:52:36;22.70;99.00
1700;DHT22;847;48.058;7.810;2023-06-22T07:55:03;22.80;99.00
1700;DHT22;847;48.058;7.810;2023-06-22T07:57:30;22.90;99.00
1700;DHT22;847;48.058;7.810;2023-06-22T07:59:59;23.00;99.00
1700;DHT22;847;48.058;7.810;2023-06-22T08:02:26;23.00;99.00
1700;DHT22;847;48.058;7.810;2023-06-22T08:04:52;23.20;99.00
1700;DHT22;847;48.058;7.810;2023-06-22T08:07:21;23.20;99.00
1700;DHT22;847;48.058;7.810;2023-06-22T08:09:48;23.20;99.00
1700;DHT22;847;48.058;7.810;2023-06-22T08:12:15;23.30;99.00
1700;DHT22;847;48.058;7.810;2023-06-22T08:14:43;23.40;99.00
1700;DHT22;847;48.058;7.810;2023-06-22T08:17:11;23.50;99.00
1700;DHT22;847;48.058;7.810;2023-06-22T08:19:39;23.60;99.00
1700;DHT22;847;48.058;7.810;2023-06-22T08:22:06;23.60;99.00
1700;DHT22;847;48.058;7.810;2023-06-22T08:24:34;23.60;99.00
1700;DHT22;847;48.058;7.810;2023-06-22T08:27:01;23.70;97.70
1700;DHT22;847;48.058;7.810;2023-06-22T08:29:27;23.80;97.30
1700;DHT22;847;48.058;7.810;2023-06-22T08:31:54;23.80;98.30
1700;DHT22;847;48.058;7.810;2023-06-22T08:34:21;23.80;98.00
1700;DHT22;847;48.058;7.810;2023-06-22T08:36:48;23.90;97.80
1700;DHT22;847;48.058;7.810;2023-06-22T08:39:18;23.90;96.90
1700;DHT22;847;48.058;7.810;2023-06-22T08:41:46;24.00;96.80
1700;DHT22;847;48.058;7.810;2023-06-22T08:44:13;24.10;95.60
1700;DHT22;847;48.058;7.810;2023-06-22T08:46:40;24.10;95.80
1700;DHT22;847;48.058;7.810;2023-06-22T08:49:07;24.20;94.40
1700;DHT22;847;48.058;7.810;2023-06-22T08:51:35;24.30;93.60
1700;DHT22;847;48.058;7.810;2023-06-22T08:54:02;24.40;94.90
1700;DHT22;847;48.058;7.810;2023-06-22T08:56:28;24.50;94.10
1700;DHT22;847;48.058;7.810;2023-06-22T08:58:56;24.60;92.90
1700;DHT22;847;48.058;7.810;2023-06-22T09:01:23;24.70;93.00
1700;DHT22;847;48.058;7.810;2023-06-22T09:03:50;24.70;92.10
1700;DHT22;847;48.058;7.810;2023-06-22T09:06:23;24.70;92.70
1700;DHT22;847;48.058;7.810;2023-06-22T09:08:50;24.90;91.20
1700;DHT22;847;48.058;7.810;2023-06-22T09:11:17;25.00;89.60
1700;DHT22;847;48.058;7.810;2023-06-22T09:13:43;25.00;89.90
1700;DHT22;847;48.058;7.810;2023-06-22T09:16:13;25.10;88.80
1700;DHT22;847;48.058;7.810;2023-06-22T09:18:40;25.10;89.00
1700;DHT22;847;48.058;7.810;2023-06-22T09:21:07;25.10;88.40
1700;DHT22;847;48.058;7.810;2023-06-22T09:23:34;25.20;89.70
1700;DHT22;847;48.058;7.810;2023-06-22T09:26:00;25.40;88.00
1700;DHT22;847;48.058;7.810;2023-06-22T09:28:28;25.30;88.60
1700;DHT22;847;48.058;7.810;2023-06-22T09:30:54;25.40;88.20
1700;DHT22;847;48.058;7.810;2023-06-22T09:33:26;25.60;88.10
1700;DHT22;847;48.058;7.810;2023-06-22T09:35:52;25.60;86.90
1700;DHT22;847;48.058;7.810;2023-06-22T09:38:19;25.50;86.20
1700;DHT22;847;48.058;7.810;2023-06-22T09:40:46;25.60;88.00
1700;DHT22;847;48.058;7.810;2023-06-22T09:43:13;25.70;86.90
1700;DHT22;847;48.058;7.810;2023-06-22T09:45:40;25.80;86.80
1700;DHT22;847;48.058;7.810;2023-06-22T09:48:06;25.80;88.10
1700;DHT22;847;48.058;7.810;2023-06-22T09:50:36;25.80;89.40
1700;DHT22;847;48.058;7.810;2023-06-22T09:53:03;25.80;88.80
1700;DHT22;847;48.058;7.810;2023-06-22T09:55:30;25.90;86.10
1700;DHT22;847;48.058;7.810;2023-06-22T09:57:56;26.10;87.70
1700;DHT22;847;48.058;7.810;2023-06-22T10:00:23;26.20;85.50
1700;DHT22;847;48.058;7.810;2023-06-22T10:02:52;26.20;86.00
1700;DHT22;847;48.058;7.810;2023-06-22T10:05:18;26.20;87.30
1700;DHT22;847;48.058;7.810;2023-06-22T10:07:46;26.20;87.80
1700;DHT22;847;48.058;7.810;2023-06-22T10:10:13;26.30;88.80
1700;DHT22;847;48.058;7.810;2023-06-22T10:12:47;26.40;88.30
1700;DHT22;847;48.058;7.810;2023-06-22T10:15:14;26.50;86.40
1700;DHT22;847;48.058;7.810;2023-06-22T10:17:41;26.60;86.20
1700;DHT22;847;48.058;7.810;2023-06-22T10:20:08;26.60;86.80
1700;DHT22;847;48.058;7.810;2023-06-22T10:22:38;26.60;86.90
1700;DHT22;847;48.058;7.810;2023-06-22T10:25:08;26.70;88.20
1700;DHT22;847;48.058;7.810;2023-06-22T10:27:34;26.90;86.00
1700;DHT22;847;48.058;7.810;2023-06-22T10:30:01;26.90;85.80
1700;DHT22;847;48.058;7.810;2023-06-22T10:32:30;26.90;84.70
1700;DHT22;847;48.058;7.810;2023-06-22T10:34:57;26.90;85.40
1700;DHT22;847;48.058;7.810;2023-06-22T10:37:24;26.90;86.60
1700;DHT22;847;48.058;7.810;2023-06-22T10:39:50;26.80;86.90
1700;DHT22;847;48.058;7.810;2023-06-22T10:42:18;26.90;87.30
1700;DHT22;847;48.058;7.810;2023-06-22T10:44:45;26.80;87.10
1700;DHT22;847;48.058;7.810;2023-06-22T10:47:12;26.80;87.20
1700;DHT22;847;48.058;7.810;2023-06-22T10:49:39;26.90;87.90
1700;DHT22;847;48.058;7.810;2023-06-22T10:52:07;26.80;86.20
1700;DHT22;847;48.058;7.810;2023-06-22T10:54:35;26.80;87.20
1700;DHT22;847;48.058;7.810;2023-06-22T10:57:02;26.80;87.00
1700;DHT22;847;48.058;7.810;2023-06-22T10:59:30;26.90;86.10
1700;DHT22;847;48.058;7.810;2023-06-22T11:01:57;26.90;86.40
1700;DHT22;847;48.058;7.810;2023-06-22T11:04:24;26.90;87.10
1700;DHT22;847;48.058;7.810;2023-06-22T11:06:51;26.90;87.10
1700;DHT22;847;48.058;7.810;2023-06-22T11:09:17;27.00;88.90
1700;DHT22;847;48.058;7.810;2023-06-22T11:11:46;27.20;88.70
1700;DHT22;847;48.058;7.810;2023-06-22T11:14:13;27.20;86.20
1700;DHT22;847;48.058;7.810;2023-06-22T11:16:41;27.30;88.50
1700;DHT22;847;48.058;7.810;2023-06-22T11:19:08;27.40;87.80
1700;DHT22;847;48.058;7.810;2023-06-22T11:21:35;27.40;87.70
1700;DHT22;847;48.058;7.810;2023-06-22T11:24:02;27.40;87.00
1700;DHT22;847;48.058;7.810;2023-06-22T11:26:28;27.50;86.50
1700;DHT22;847;48.058;7.810;2023-06-22T11:28:57;27.60;87.30
1700;DHT22;847;48.058;7.810;2023-06-22T11:31:24;27.60;88.20
1700;DHT22;847;48.058;7.810;2023-06-22T11:33:52;27.70;87.50
1700;DHT22;847;48.058;7.810;2023-06-22T11:36:19;27.70;86.90
1700;DHT22;847;48.058;7.810;2023-06-22T11:38:46;27.80;86.80
1700;DHT22;847;48.058;7.810;2023-06-22T11:41:13;27.70;85.00
1700;DHT22;847;48.058;7.810;2023-06-22T11:43:39;27.80;85.70
1700;DHT22;847;48.058;7.810;2023-06-22T11:46:06;27.80;85.80
1700;DHT22;847;48.058;7.810;2023-06-22T11:48:33;27.80;86.40
1700;DHT22;847;48.058;7.810;2023-06-22T11:51:01;27.80;86.40
1700;DHT22;847;48.058;7.810;2023-06-22T11:53:28;27.70;86.00
1700;DHT22;847;48.058;7.810;2023-06-22T11:55:55;27.70;86.90
1700;DHT22;847;48.058;7.810;2023-06-22T11:58:24;27.70;87.20
1700;DHT22;847;48.058;7.810;2023-06-22T12:00:51;27.70;86.70
1700;DHT22;847;48.058;7.810;2023-06-22T12:03:18;27.70;87.00
1700;DHT22;847;48.058;7.810;2023-06-22T12:05:45;27.70;85.80
1700;DHT22;847;48.058;7.810;2023-06-22T12:08:13;27.80;87.20
1700;DHT22;847;48.058;7.810;2023-06-22T12:10:40;27.70;87.30
1700;DHT22;847;48.058;7.810;2023-06-22T12:13:06;27.70;87.30
1700;DHT22;847;48.058;7.810;2023-06-22T12:15:33;27.70;87.80
1700;DHT22;847;48.058;7.810;2023-06-22T12:18:00;27.70;86.70
1700;DHT22;847;48.058;7.810;2023-06-22T12:20:27;27.80;85.00
1700;DHT22;847;48.058;7.810;2023-06-22T12:22:54;27.80;85.60
1700;DHT22;847;48.058;7.810;2023-06-22T12:25:24;27.80;86.60
1700;DHT22;847;48.058;7.810;2023-06-22T12:27:51;27.80;87.30
1700;DHT22;847;48.058;7.810;2023-06-22T12:30:19;27.80;88.20
1700;DHT22;847;48.058;7.810;2023-06-22T12:32:46;27.80;87.90
1700;DHT22;847;48.058;7.810;2023-06-22T12:35:12;27.70;88.30
1700;DHT22;847;48.058;7.810;2023-06-22T12:37:40;27.70;87.60
1700;DHT22;847;48.058;7.810;2023-06-22T12:40:08;27.60;87.90
1700;DHT22;847;48.058;7.810;2023-06-22T12:42:37;27.60;86.40
1700;DHT22;847;48.058;7.810;2023-06-22T12:45:04;27.50;87.70
1700;DHT22;847;48.058;7.810;2023-06-22T12:47:31;27.50;87.80
1700;DHT22;847;48.058;7.810;2023-06-22T12:49:58;27.40;88.40
1700;DHT22;847;48.058;7.810;2023-06-22T12:52:25;27.40;87.60
1700;DHT22;847;48.058;7.810;2023-06-22T12:54:52;27.40;88.10
1700;DHT22;847;48.058;7.810;2023-06-22T12:57:19;27.40;87.80
1700;DHT22;847;48.058;7.810;2023-06-22T12:59:47;27.30;87.90
1700;DHT22;847;48.058;7.810;2023-06-22T13:02:14;27.30;87.40
1700;DHT22;847;48.058;7.810;2023-06-22T13:04:41;27.30;85.80
1700;DHT22;847;48.058;7.810;2023-06-22T13:07:08;27.30;85.50
1700;DHT22;847;48.058;7.810;2023-06-22T13:09:36;27.30;85.10
1700;DHT22;847;48.058;7.810;2023-06-22T13:12:03;27.30;85.10
1700;DHT22;847;48.058;7.810;2023-06-22T13:14:30;27.40;86.10
1700;DHT22;847;48.058;7.810;2023-06-22T13:16:58;27.30;85.40
1700;DHT22;847;48.058;7.810;2023-06-22T13:19:25;27.30;85.30
1700;DHT22;847;48.058;7.810;2023-06-22T13:21:54;27.30;84.60
1700;DHT22;847;48.058;7.810;2023-06-22T13:24:21;27.30;85.80
1700;DHT22;847;48.058;7.810;2023-06-22T13:26:47;27.30;85.00
1700;DHT22;847;48.058;7.810;2023-06-22T13:29:14;27.30;84.50
1700;DHT22;847;48.058;7.810;2023-06-22T13:31:41;27.30;84.80
1700;DHT22;847;48.058;7.810;2023-06-22T13:34:09;27.40;84.70
1700;DHT22;847;48.058;7.810;2023-06-22T13:36:35;27.40;84.20
1700;DHT22;847;48.058;7.810;2023-06-22T13:39:02;27.50;84.00
1700;DHT22;847;48.058;7.810;2023-06-22T13:41:29;27.50;83.60
1700;DHT22;847;48.058;7.810;2023-06-22T13:43:56;27.40;84.00
1700;DHT22;847;48.058;7.810;2023-06-22T13:46:22;27.40;83.90
1700;DHT22;847;48.058;7.810;2023-06-22T13:48:49;27.40;85.20
1700;DHT22;847;48.058;7.810;2023-06-22T13:51:17;27.40;85.40
1700;DHT22;847;48.058;7.810;2023-06-22T13:53:44;27.30;84.70
1700;DHT22;847;48.058;7.810;2023-06-22T13:56:10;27.30;85.10
1700;DHT22;847;48.058;7.810;2023-06-22T13:58:37;27.20;83.20
1700;DHT22;847;48.058;7.810;2023-06-22T14:01:04;27.20;83.20
1700;DHT22;847;48.058;7.810;2023-06-22T14:03:31;27.20;83.70
1700;DHT22;847;48.058;7.810;2023-06-22T14:05:57;27.10;84.00
1700;DHT22;847;48.058;7.810;2023-06-22T14:08:25;27.10;83.30
1700;DHT22;847;48.058;7.810;2023-06-22T14:10:52;27.10;83.10
1700;DHT22;847;48.058;7.810;2023-06-22T14:13:20;27.00;82.30
1700;DHT22;847;48.058;7.810;2023-06-22T14:15:46;27.00;82.00
1700;DHT22;847;48.058;7.810;2023-06-22T14:18:14;27.00;82.20
1700;DHT22;847;48.058;7.810;2023-06-22T14:20:41;27.00;81.80
1700;DHT22;847;48.058;7.810;2023-06-22T14:23:08;26.90;81.70
1700;DHT22;847;48.058;7.810;2023-06-22T14:25:36;27.00;81.50
1700;DHT22;847;48.058;7.810;2023-06-22T14:28:03;26.90;81.60
1700;DHT22;847;48.058;7.810;2023-06-22T14:30:29;26.90;82.10
1700;DHT22;847;48.058;7.810;2023-06-22T14:32:56;27.00;81.90
1700;DHT22;847;48.058;7.810;2023-06-22T14:35:23;27.00;81.80
1700;DHT22;847;48.058;7.810;2023-06-22T14:37:50;27.00;81.70
1700;DHT22;847;48.058;7.810;2023-06-22T14:40:17;27.00;81.60
1700;DHT22;847;48.058;7.810;2023-06-22T14:42:45;27.00;81.80
1700;DHT22;847;48.058;7.810;2023-06-22T14:45:12;27.10;81.50
1700;DHT22;847;48.058;7.810;2023-06-22T14:47:39;27.30;81.60
1700;DHT22;847;48.058;7.810;2023-06-22T14:50:06;27.40;80.80
1700;DHT22;847;48.058;7.810;2023-06-22T14:52:33;27.60;81.40
1700;DHT22;847;48.058;7.810;2023-06-22T14:55:00;27.70;81.50
1700;DHT22;847;48.058;7.810;2023-06-22T14:57:26;27.70;80.90
1700;DHT22;847;48.058;7.810;2023-06-22T14:59:54;27.70;80.70
1700;DHT22;847;48.058;7.810;2023-06-22T15:02:21;27.70;80.30
1700;DHT22;847;48.058;7.810;2023-06-22T15:04:48;27.60;80.60
1700;DHT22;847;48.058;7.810;2023-06-22T15:07:15;27.70;80.80
1700;DHT22;847;48.058;7.810;2023-06-22T15:09:41;27.60;80.70
1700;DHT22;847;48.058;7.810;2023-06-22T15:12:10;27.70;80.20
1700;DHT22;847;48.058;7.810;2023-06-22T15:14:38;27.70;79.70
1700;DHT22;847;48.058;7.810;2023-06-22T15:17:07;27.70;80.00
1700;DHT22;847;48.058;7.810;2023-06-22T15:19:35;27.70;80.20
1700;DHT22;847;48.058;7.810;2023-06-22T15:22:03;27.80;80.30
1700;DHT22;847;48.058;7.810;2023-06-22T15:24:31;27.90;79.80
1700;DHT22;847;48.058;7.810;2023-06-22T15:26:58;28.00;78.40
1700;DHT22;847;48.058;7.810;2023-06-22T15:29:24;28.00;77.50
1700;DHT22;847;48.058;7.810;2023-06-22T15:31:52;28.10;77.00
1700;DHT22;847;48.058;7.810;2023-06-22T15:34:20;28.10;77.00
1700;DHT22;847;48.058;7.810;2023-06-22T15:36:46;28.00;77.00
1700;DHT22;847;48.058;7.810;2023-06-22T15:39:13;28.10;76.90
1700;DHT22;847;48.058;7.810;2023-06-22T15:41:40;28.10;76.90
1700;DHT22;847;48.058;7.810;2023-06-22T15:44:07;28.10;77.50
1700;DHT22;847;48.058;7.810;2023-06-22T15:46:34;28.00;77.80
1700;DHT22;847;48.058;7.810;2023-06-22T15:49:01;28.00;76.70
1700;DHT22;847;48.058;7.810;2023-06-22T15:51:29;28.00;76.60
1700;DHT22;847;48.058;7.810;2023-06-22T15:53:56;27.90;76.70
1700;DHT22;847;48.058;7.810;2023-06-22T15:56:23;27.90;76.70
1700;DHT22;847;48.058;7.810;2023-06-22T15:58:50;28.00;76.20
1700;DHT22;847;48.058;7.810;2023-06-22T16:01:17;28.00;76.70
1700;DHT22;847;48.058;7.810;2023-06-22T16:03:44;28.00;75.90
1700;DHT22;847;48.058;7.810;2023-06-22T16:06:10;28.00;75.40
1700;DHT22;847;48.058;7.810;2023-06-22T16:08:38;27.90;75.20
1700;DHT22;847;48.058;7.810;2023-06-22T16:11:05;28.00;76.00
1700;DHT22;847;48.058;7.810;2023-06-22T16:13:32;27.90;75.40
1700;DHT22;847;48.058;7.810;2023-06-22T16:15:59;27.90;75.90
1700;DHT22;847;48.058;7.810;2023-06-22T16:18:26;27.80;76.00
1700;DHT22;847;48.058;7.810;2023-06-22T16:20:53;27.80;75.50